Time;durP1;ratioP1;P1;durP2;ratioP2;P2;SDS_P1;SDS_P2;PMS_P1;PMS_P2;Temp;Humidity;BMP_temperature;BMP_pressure;BME280_temperature;BME280_humidity;BME280_pressure;Samples;Min_cycle;Max_cycle;Signal;HPM_P1;HPM_P2
2022/01/22 00:00:53;;;;;;;6.82;1.50;;;23.90;99.90;;;;;;5088481;28;20384;-79
2022/01/22 00:03:20;;;;;;;8.68;1.73;;;24.30;99.90;;;;;;5088412;28;20371;-78
2022/01/22 00:05:48;;;;;;;8.05;2.00;;;24.30;99.90;;;;;;5088347;28;20874;-81
2022/01/22 00:08:15;;;;;;;5.63;1.60;;;24.40;99.90;;;;;;5088496;28;20364;-80
2022/01/22 00:10:44;;;;;;;6.95;1.40;;;24.50;99.90;;;;;;5088110;28;20764;-80
2022/01/22 00:15:46;;;;;;;5.70;1.30;;;24.40;99.00;;;;;;5087939;28;20396;-80
2022/01/22 00:18:13;;;;;;;6.65;1.40;;;24.70;99.20;;;;;;5088825;28;20368;-81
2022/01/22 00:20:40;;;;;;;6.60;1.35;;;24.80;99.10;;;;;;5088268;28;20382;-80
2022/01/22 00:23:08;;;;;;;5.00;1.40;;;25.30;97.30;;;;;;5087991;28;20393;-81
2022/01/22 00:25:36;;;;;;;6.73;1.40;;;25.80;95.00;;;;;;5088318;28;20381;-80
2022/01/22 00:28:03;;;;;;;6.53;1.25;;;25.90;93.30;;;;;;5090379;28;20732;-80
2022/01/22 00:30:30;;;;;;;8.18;1.67;;;25.60;93.30;;;;;;5092319;28;20400;-81
2022/01/22 00:32:57;;;;;;;6.30;1.60;;;25.10;94.50;;;;;;5092177;28;20386;-81
2022/01/22 00:35:25;;;;;;;5.85;1.38;;;24.70;94.90;;;;;;5092223;28;20379;-81
2022/01/22 00:37:53;;;;;;;6.63;1.30;;;24.50;95.60;;;;;;5092139;28;20430;-81
2022/01/22 00:40:22;;;;;;;5.13;1.35;;;24.40;94.80;;;;;;5092144;28;20426;-80
2022/01/22 00:42:49;;;;;;;6.65;1.40;;;24.40;95.40;;;;;;5091863;28;20388;-80
2022/01/22 00:45:17;;;;;;;5.73;1.20;;;24.50;95.90;;;;;;5091980;28;20416;-81
2022/01/22 00:47:44;;;;;;;5.43;1.20;;;24.70;93.60;;;;;;5092006;28;20375;-81
2022/01/22 00:50:13;;;;;;;5.72;1.30;;;25.00;94.00;;;;;;5091971;28;20380;-82
2022/01/22 00:52:44;;;;;;;3.55;1.20;;;25.50;93.20;;;;;;5091812;28;20455;-82
2022/01/22 00:55:12;;;;;;;5.13;1.20;;;26.20;91.50;;;;;;5091462;28;20471;-78
2022/01/22 00:57:40;;;;;;;3.83;1.00;;;26.50;88.40;;;;;;5091714;28;20763;-79
2022/01/22 01:00:10;;;;;;;3.72;1.00;;;26.80;81.20;;;;;;5091852;28;20421;-80
2022/01/22 01:02:37;;;;;;;3.28;0.95;;;27.10;78.20;;;;;;5091623;28;20376;-78
2022/01/22 01:05:06;;;;;;;3.92;1.10;;;27.40;73.00;;;;;;5091532;28;20384;-80
2022/01/22 01:07:33;;;;;;;5.47;1.85;;;27.60;72.10;;;;;;5091593;28;20373;-81
2022/01/22 01:10:00;;;;;;;4.60;1.17;;;28.10;69.80;;;;;;5091570;28;20378;-80
2022/01/22 01:12:28;;;;;;;3.33;1.20;;;28.30;66.30;;;;;;5091426;28;20852;-77
2022/01/22 01:15:12;;;;;;;3.63;1.23;;;28.50;66.90;;;;;;5091452;28;20365;-78
2022/01/22 01:34:11;;;;;;;4.22;1.20;;;29.10;64.10;;;;;;5091333;28;20724;-78
2022/01/22 01:36:40;;;;;;;4.25;1.02;;;29.20;62.20;;;;;;5091027;28;20455;-77
2022/01/22 01:39:09;;;;;;;40.80;5.53;;;29.30;60.40;;;;;;5089489;28;20389;-80
2022/01/22 01:44:04;;;;;;;4.53;1.33;;;29.50;60.40;;;;;;5090906;28;20394;-79
2022/01/22 01:46:32;;;;;;;7.28;2.58;;;29.50;58.70;;;;;;5090841;28;20377;-80
2022/01/22 01:49:00;;;;;;;7.97;2.60;;;29.40;60.60;;;;;;5090689;28;20396;-81
2022/01/22 01:51:30;;;;;;;7.80;1.90;;;29.40;60.40;;;;;;5090607;28;20442;-80
2022/01/22 01:54:05;;;;;;;2.65;1.17;;;29.70;58.20;;;;;;5090514;28;20422;-80
2022/01/22 01:59:18;;;;;;;4.32;1.20;;;30.60;56.80;;;;;;5091145;28;20441;-82
2022/01/22 02:01:45;;;;;;;4.93;1.20;;;31.00;54.50;;;;;;5090849;28;20762;-81
2022/01/22 02:04:13;;;;;;;3.65;1.20;;;31.00;55.10;;;;;;5090527;28;20372;-82
2022/01/22 02:06:41;;;;;;;4.50;1.45;;;31.00;54.90;;;;;;5090513;28;20720;-81
2022/01/22 02:09:10;;;;;;;4.13;1.02;;;31.00;54.10;;;;;;5090452;28;20843;-81
2022/01/22 02:11:40;;;;;;;2.78;1.00;;;31.20;53.60;;;;;;5090405;28;20400;-77
2022/01/22 02:23:30;;;;;;;2.60;0.95;;;31.50;53.40;;;;;;5090508;28;20364;-81
2022/01/22 02:25:10;;;;;;;3.40;1.02;;;32.70;49.80;;;;;;5090479;28;20398;-80
2022/01/22 02:27:37;;;;;;;2.60;0.93;;;32.90;50.80;;;;;;5090061;28;20754;-79
2022/01/22 02:30:05;;;;;;;2.90;1.00;;;33.10;50.20;;;;;;5089956;28;20377;-81
2022/01/22 02:32:43;;;;;;;3.20;1.00;;;33.10;51.20;;;;;;5089866;28;20472;-81
2022/01/22 02:38:04;;;;;;;2.78;1.05;;;31.70;51.70;;;;;;5090466;28;20399;-81
2022/01/22 02:40:40;;;;;;;3.90;1.10;;;30.50;53.00;;;;;;5089857;28;20369;-80
2022/01/22 02:43:10;;;;;;;3.72;1.02;;;29.60;54.10;;;;;;5089714;28;20864;-82
2022/01/22 02:45:37;;;;;;;2.65;1.10;;;28.90;55.50;;;;;;5089600;28;20379;-81
2022/01/22 02:48:04;;;;;;;4.95;1.13;;;28.50;57.10;;;;;;5089691;28;20464;-82
2022/01/22 02:50:31;;;;;;;2.53;0.80;;;28.20;59.00;;;;;;5089191;28;20848;-82
2022/01/22 02:53:03;;;;;;;3.60;0.90;;;27.70;58.10;;;;;;5089670;28;20476;-82
2022/01/22 02:55:30;;;;;;;3.67;1.02;;;28.10;59.70;;;;;;5089533;28;20364;-82
2022/01/22 02:57:57;;;;;;;3.50;1.00;;;29.60;56.20;;;;;;5089452;28;20400;-82
2022/01/22 03:00:25;;;;;;;3.97;0.93;;;30.90;55.40;;;;;;5089378;28;20418;-82
2022/01/22 03:02:53;;;;;;;3.25;0.82;;;31.90;52.50;;;;;;5089382;28;20387;-82
2022/01/22 03:05:21;;;;;;;2.53;1.00;;;32.80;49.60;;;;;;5089267;28;20371;-82
2022/01/22 03:07:52;;;;;;;4.33;1.90;;;33.10;50.60;;;;;;5089317;28;20373;-82
2022/01/22 03:10:22;;;;;;;3.90;1.50;;;32.90;52.40;;;;;;5089287;28;20396;-82
2022/01/22 03:18:05;;;;;;;4.00;1.50;;;30.80;51.10;;;;;;5089215;28;20361;-82
2022/01/22 03:23:12;;;;;;;4.93;1.00;;;31.10;53.50;;;;;;5089115;28;20444;-82
2022/01/22 03:28:29;;;;;;;4.00;1.20;;;33.30;48.90;;;;;;5089291;28;20363;-83
2022/01/22 03:30:56;;;;;;;4.15;1.25;;;34.40;47.20;;;;;;5088809;28;20384;-82
2022/01/22 03:33:24;;;;;;;2.83;1.07;;;34.70;46.20;;;;;;5088821;28;20383;-83
2022/01/22 03:35:56;;;;;;;4.75;1.02;;;34.70;46.60;;;;;;5088785;28;20509;-83
2022/01/22 03:38:23;;;;;;;11.30;1.60;;;34.80;45.50;;;;;;5088863;28;20444;-82
2022/01/22 03:40:50;;;;;;;3.72;1.20;;;35.20;46.60;;;;;;5088540;28;20938;-82
2022/01/22 03:43:18;;;;;;;2.63;1.20;;;35.40;44.30;;;;;;5088792;28;20364;-83
2022/01/22 03:45:46;;;;;;;3.55;1.10;;;35.40;45.50;;;;;;5088709;28;20384;-81
2022/01/22 03:48:13;;;;;;;2.17;0.95;;;35.20;46.60;;;;;;5088722;28;20386;-82
2022/01/22 03:50:40;;;;;;;8.40;1.10;;;35.10;45.80;;;;;;5088518;28;20389;-82
2022/01/22 03:53:07;;;;;;;4.10;1.02;;;35.10;46.00;;;;;;5088900;28;20380;-80
2022/01/22 03:58:19;;;;;;;4.32;1.10;;;34.50;45.90;;;;;;5088878;28;20367;-81
2022/01/22 04:00:49;;;;;;;3.38;1.10;;;33.10;47.70;;;;;;5088546;28;20368;-81
2022/01/22 04:06:48;;;;;;;3.50;1.20;;;30.70;52.20;;;;;;5088462;28;20388;-82
2022/01/22 04:08:36;;;;;;;2.55;1.02;;;31.30;53.60;;;;;;5082858;28;20373;-81
2022/01/22 04:11:09;;;;;;;4.07;1.10;;;32.80;51.10;;;;;;5088366;28;20408;-82
2022/01/22 04:13:36;;;;;;;2.10;0.80;;;33.20;49.60;;;;;;5087101;28;20743;-81
2022/01/22 04:16:03;;;;;;;2.60;0.80;;;34.00;47.40;;;;;;5088250;28;20391;-82
2022/01/22 04:27:27;;;;;;;4.00;1.00;;;33.90;45.90;;;;;;5088541;28;20363;-83
2022/01/22 04:29:35;;;;;;;2.95;0.90;;;33.00;47.40;;;;;;5082523;28;20379;-82
2022/01/22 04:32:02;;;;;;;4.38;1.08;;;32.00;49.00;;;;;;5088225;28;20408;-83
2022/01/22 04:34:29;;;;;;;2.47;0.90;;;31.90;49.60;;;;;;5088314;28;20419;-83
2022/01/22 04:36:56;;;;;;;3.88;1.00;;;32.10;50.30;;;;;;5088048;28;20407;-82
2022/01/22 04:39:25;;;;;;;3.55;1.10;;;32.70;48.70;;;;;;5088142;28;20399;-82
2022/01/22 04:41:55;;;;;;;3.80;0.88;;;33.60;48.00;;;;;;5088263;28;20424;-83
2022/01/22 04:44:29;;;;;;;3.60;1.10;;;34.20;46.50;;;;;;5088300;28;20403;-81
2022/01/22 04:47:30;;;;;;;2.40;0.98;;;34.40;46.10;;;;;;5088120;28;20365;-82
2022/01/22 04:55:00;;;;;;;4.03;1.00;;;32.10;49.30;;;;;;5087936;28;20732;-81
2022/01/22 04:57:33;;;;;;;3.42;1.00;;;31.20;51.70;;;;;;5087893;28;20368;-82
2022/01/22 05:00:00;;;;;;;3.90;0.98;;;30.20;52.90;;;;;;5088109;28;20356;-82
2022/01/22 05:02:27;;;;;;;4.03;1.10;;;29.40;54.10;;;;;;5087938;28;20900;-82
2022/01/22 05:04:54;;;;;;;3.22;0.98;;;29.70;55.70;;;;;;5087913;28;20372;-83
2022/01/22 05:07:21;;;;;;;3.75;0.90;;;31.10;52.20;;;;;;5087977;28;20501;-83
2022/01/22 05:09:48;;;;;;;3.40;1.00;;;32.20;50.40;;;;;;5087763;28;20405;-82
2022/01/22 05:12:15;;;;;;;2.63;1.10;;;33.10;49.40;;;;;;5087752;28;20396;-83
2022/01/22 05:14:43;;;;;;;2.58;1.00;;;33.50;47.50;;;;;;5090938;28;20375;-83
2022/01/22 05:17:10;;;;;;;3.75;1.10;;;32.70;48.80;;;;;;5091536;28;20384;-82
2022/01/22 05:22:16;;;;;;;4.83;1.23;;;32.00;51.00;;;;;;5091514;28;20372;-83
2022/01/22 05:24:48;;;;;;;3.33;1.05;;;32.40;49.20;;;;;;5091231;28;20491;-84
2022/01/22 05:27:32;;;;;;;3.92;1.10;;;32.30;49.90;;;;;;5092052;28;20728;-83
2022/01/22 05:37:50;;;;;;;3.88;1.50;;;30.40;51.80;;;;;;5091295;28;20378;-81
2022/01/22 05:40:18;;;;;;;3.43;1.40;;;29.60;52.60;;;;;;5090891;28;20384;-82
2022/01/22 05:42:44;;;;;;;3.55;1.20;;;29.10;53.60;;;;;;5090795;28;20387;-83
2022/01/22 05:45:12;;;;;;;2.77;1.10;;;28.70;55.40;;;;;;5091113;28;20372;-82
2022/01/22 05:47:38;;;;;;;3.55;1.30;;;29.60;54.50;;;;;;5091164;28;20365;-83
2022/01/22 05:50:12;;;;;;;3.20;1.17;;;30.30;52.40;;;;;;5090978;28;20468;-84
2022/01/22 05:52:53;;;;;;;3.17;1.17;;;31.10;51.40;;;;;;5091063;28;20400;-84
2022/01/22 06:00:38;;;;;;;3.20;1.20;;;30.90;51.20;;;;;;5091009;28;20479;-82
2022/01/22 06:03:05;;;;;;;5.22;3.17;;;31.10;51.70;;;;;;5090538;28;20377;-83
2022/01/22 06:05:32;;;;;;;6.55;2.05;;;31.80;49.80;;;;;;5090568;28;20942;-84
2022/01/22 06:07:59;;;;;;;5.25;2.63;;;32.00;50.20;;;;;;5090651;28;20758;-83
2022/01/22 06:10:28;;;;;;;4.63;1.85;;;32.10;49.70;;;;;;5090409;28;20418;-83
2022/01/22 06:15:41;;;;;;;5.32;1.38;;;32.30;48.40;;;;;;5090931;28;20388;-82
2022/01/22 06:18:08;;;;;;;3.25;1.20;;;32.00;48.70;;;;;;5090331;28;20380;-84
2022/01/22 06:20:35;;;;;;;3.08;1.10;;;31.30;48.90;;;;;;5090178;28;20361;-85
2022/01/22 06:23:03;;;;;;;2.88;0.98;;;30.90;50.80;;;;;;5090574;28;20373;-82
2022/01/22 06:25:30;;;;;;;5.10;1.20;;;31.40;49.50;;;;;;5089428;28;20422;-84
2022/01/22 06:27:58;;;;;;;2.17;0.90;;;31.60;49.90;;;;;;5090182;28;20383;-84
2022/01/22 06:30:26;;;;;;;2.53;0.90;;;32.00;49.50;;;;;;5089875;28;20368;-84
2022/01/22 06:32:53;;;;;;;3.23;1.20;;;32.80;48.10;;;;;;5090359;28;20853;-84
2022/01/22 06:35:20;;;;;;;3.88;1.00;;;33.40;47.70;;;;;;5089892;28;20380;-83
2022/01/22 06:37:47;;;;;;;4.28;1.00;;;33.80;46.50;;;;;;5090225;28;20820;-83
2022/01/22 06:42:44;;;;;;;2.80;1.00;;;34.20;45.70;;;;;;5089679;28;20388;-84
2022/01/22 06:45:11;;;;;;;3.80;1.40;;;34.30;45.60;;;;;;5089807;28;20397;-84
2022/01/22 06:47:38;;;;;;;3.13;0.90;;;34.10;45.40;;;;;;5089800;28;20392;-82
2022/01/22 06:50:06;;;;;;;4.22;1.40;;;33.80;45.90;;;;;;5089631;28;20411;-82
2022/01/22 06:52:33;;;;;;;2.10;1.20;;;33.40;46.30;;;;;;5089553;28;20396;-82
2022/01/22 06:55:00;;;;;;;4.13;1.40;;;33.20;46.40;;;;;;5089568;28;20372;-82
2022/01/22 06:57:27;;;;;;;4.05;1.25;;;32.40;46.90;;;;;;5089588;28;20391;-82
2022/01/22 06:59:54;;;;;;;3.20;1.30;;;31.90;48.50;;;;;;5089448;28;20401;-82
2022/01/22 07:02:23;;;;;;;5.15;1.20;;;32.10;47.60;;;;;;5089473;28;20467;-82
2022/01/22 07:04:50;;;;;;;5.30;1.23;;;32.60;46.00;;;;;;5089429;28;20365;-82
2022/01/22 07:07:17;;;;;;;3.93;1.20;;;32.60;46.40;;;;;;5089299;28;20376;-82
2022/01/22 07:09:44;;;;;;;2.97;1.10;;;32.20;46.60;;;;;;5089417;28;20389;-82
2022/01/22 07:12:12;;;;;;;3.00;1.20;;;32.00;48.00;;;;;;5089112;28;20400;-82
2022/01/22 07:14:39;;;;;;;4.22;1.40;;;32.10;47.80;;;;;;5089274;28;20368;-82
2022/01/22 07:17:07;;;;;;;3.00;1.17;;;32.10;47.40;;;;;;5089205;28;20373;-82
2022/01/22 07:19:40;;;;;;;3.33;1.20;;;31.70;48.60;;;;;;5089048;28;20372;-81
2022/01/22 07:22:31;;;;;;;3.53;1.33;;;31.40;49.20;;;;;;5089244;28;20375;-81
2022/01/22 07:24:53;;;;;;;3.75;1.40;;;31.40;48.40;;;;;;5088935;28;20471;-81
2022/01/22 07:27:20;;;;;;;6.32;1.30;;;31.40;48.30;;;;;;5088948;28;20375;-81
2022/01/22 07:29:49;;;;;;;2.67;0.97;;;31.20;48.50;;;;;;5088876;28;20383;-81
2022/01/22 07:32:26;;;;;;;4.50;1.42;;;31.30;49.40;;;;;;5088818;28;20426;-82
2022/01/22 07:34:54;;;;;;;4.13;1.40;;;31.20;48.70;;;;;;5088778;28;20372;-81
2022/01/22 07:37:20;;;;;;;3.67;1.20;;;31.10;50.00;;;;;;5087728;28;20377;-81
2022/01/22 07:39:47;;;;;;;4.75;1.30;;;31.30;49.20;;;;;;5088766;28;20369;-83
2022/01/22 07:42:15;;;;;;;4.70;1.30;;;31.30;49.90;;;;;;5088439;28;20747;-83
2022/01/22 07:44:41;;;;;;;6.63;1.20;;;31.20;49.40;;;;;;5088668;28;20410;-83
2022/01/22 07:47:09;;;;;;;2.75;1.08;;;30.80;50.40;;;;;;5088623;28;20442;-83
2022/01/22 07:49:36;;;;;;;3.33;1.17;;;30.50;51.50;;;;;;5088694;28;20394;-83
2022/01/22 07:52:03;;;;;;;4.65;1.17;;;30.20;51.50;;;;;;5088646;28;20403;-83
2022/01/22 07:54:32;;;;;;;3.97;1.30;;;30.00;52.20;;;;;;5088592;28;20657;-83
2022/01/22 07:57:01;;;;;;;4.13;1.30;;;29.70;52.30;;;;;;5088455;28;20376;-83
2022/01/22 07:59:30;;;;;;;2.75;1.08;;;29.80;52.60;;;;;;5088782;28;20376;-83
2022/01/22 08:01:57;;;;;;;2.65;1.00;;;29.80;52.70;;;;;;5088465;28;20382;-83
2022/01/22 08:04:24;;;;;;;3.70;1.08;;;29.90;52.30;;;;;;5088507;28;20372;-83
2022/01/22 08:06:53;;;;;;;3.47;1.20;;;29.80;52.90;;;;;;5088637;28;20379;-83
2022/01/22 08:09:23;;;;;;;3.38;1.10;;;29.60;52.60;;;;;;5088425;28;20847;-83
2022/01/22 08:11:50;;;;;;;4.60;1.20;;;29.40;52.80;;;;;;5088268;28;20404;-83
2022/01/22 08:14:17;;;;;;;5.63;1.17;;;29.20;53.50;;;;;;5088449;28;20373;-84
2022/01/22 08:16:46;;;;;;;4.20;1.35;;;28.90;54.60;;;;;;5088225;28;20539;-84
2022/01/22 08:19:14;;;;;;;4.30;1.40;;;28.50;55.30;;;;;;5088155;28;20367;-83
2022/01/22 08:21:42;;;;;;;5.80;1.40;;;28.00;57.00;;;;;;5088322;28;20379;-83
2022/01/22 08:24:10;;;;;;;6.32;1.48;;;27.30;58.20;;;;;;5088283;28;20896;-83
2022/01/22 08:26:43;;;;;;;5.50;1.30;;;26.60;58.90;;;;;;5088189;28;20713;-82
2022/01/22 08:29:10;;;;;;;5.65;1.60;;;26.10;60.40;;;;;;5089361;28;20740;-83
2022/01/22 08:31:47;;;;;;;5.88;1.27;;;25.50;61.70;;;;;;5088222;28;20425;-83
2022/01/22 08:36:59;;;;;;;7.05;1.52;;;24.80;64.10;;;;;;5088398;28;20368;-82
2022/01/22 08:39:27;;;;;;;5.93;1.50;;;24.60;64.80;;;;;;5088120;28;20415;-82
2022/01/22 08:41:56;;;;;;;3.60;1.30;;;24.40;65.20;;;;;;5088015;28;20398;-82
2022/01/22 08:44:23;;;;;;;5.03;1.40;;;24.30;66.00;;;;;;5088102;28;20938;-83
2022/01/22 08:46:50;;;;;;;7.45;1.60;;;24.20;66.70;;;;;;5086867;28;20467;-82
2022/01/22 08:49:17;;;;;;;5.05;1.30;;;24.00;66.90;;;;;;5090786;28;20450;-82
2022/01/22 08:51:44;;;;;;;10.52;1.50;;;23.80;67.70;;;;;;5092114;28;20431;-82
2022/01/22 08:54:12;;;;;;;6.40;1.30;;;23.70;68.90;;;;;;5092533;28;20418;-82
2022/01/22 08:56:40;;;;;;;7.22;1.30;;;23.50;69.80;;;;;;5091903;28;20383;-82
2022/01/22 08:59:09;;;;;;;6.05;1.30;;;23.40;70.60;;;;;;5091861;28;20358;-80
2022/01/22 09:01:39;;;;;;;6.05;1.45;;;23.30;71.40;;;;;;5091704;28;20440;-80
2022/01/22 09:04:06;;;;;;;5.60;1.50;;;23.20;71.80;;;;;;5091491;28;20747;-80
2022/01/22 09:06:33;;;;;;;7.35;1.40;;;23.10;72.60;;;;;;5091715;28;20414;-80
2022/01/22 09:09:11;;;;;;;4.40;1.40;;;23.00;74.10;;;;;;5091481;28;20928;-80
2022/01/22 09:11:42;;;;;;;5.43;1.40;;;22.90;75.50;;;;;;5091402;28;20432;-79
2022/01/22 09:14:11;;;;;;;8.32;1.60;;;22.70;77.00;;;;;;5091971;28;20357;-79
2022/01/22 09:16:39;;;;;;;7.03;1.67;;;22.60;78.50;;;;;;5091456;28;20400;-79
2022/01/22 09:19:10;;;;;;;9.65;1.80;;;22.50;79.80;;;;;;5091406;28;20491;-79
2022/01/22 09:21:40;;;;;;;6.93;1.58;;;22.40;81.50;;;;;;5092021;28;20433;-79
2022/01/22 09:24:07;;;;;;;6.07;1.77;;;22.40;83.10;;;;;;5091379;28;20361;-79
2022/01/22 09:26:36;;;;;;;6.20;1.67;;;22.40;84.30;;;;;;5091253;28;20377;-80
2022/01/22 09:29:04;;;;;;;6.60;1.50;;;22.30;85.70;;;;;;5091330;28;20425;-80
2022/01/22 09:31:32;;;;;;;7.18;1.67;;;22.30;87.70;;;;;;5091090;28;20400;-80
2022/01/22 09:34:00;;;;;;;7.88;1.60;;;22.20;89.00;;;;;;5091210;28;20369;-80
2022/01/22 09:36:29;;;;;;;5.40;1.60;;;22.10;90.60;;;;;;5091054;28;20764;-80
2022/01/22 09:38:57;;;;;;;5.80;1.83;;;22.10;91.70;;;;;;5091381;28;20392;-80
2022/01/22 09:41:27;;;;;;;6.68;1.48;;;22.10;92.50;;;;;;5090942;28;20401;-80
2022/01/22 09:43:54;;;;;;;8.17;1.47;;;22.20;93.10;;;;;;5090983;28;20378;-80
2022/01/22 09:46:23;;;;;;;7.47;1.70;;;22.10;93.70;;;;;;5091797;28;20711;-78
2022/01/22 09:48:51;;;;;;;7.68;1.60;;;22.10;94.50;;;;;;5090812;28;20415;-80
2022/01/22 09:51:18;;;;;;;6.65;1.40;;;22.10;95.20;;;;;;5091111;28;20487;-79
2022/01/22 09:53:45;;;;;;;6.88;1.55;;;22.10;95.70;;;;;;5090758;28;20415;-79
2022/01/22 09:56:17;;;;;;;6.40;1.63;;;22.00;96.30;;;;;;5090851;28;20747;-82
2022/01/22 09:58:44;;;;;;;6.55;1.77;;;22.00;97.00;;;;;;5090775;28;20364;-79
2022/01/22 10:01:33;;;;;;;9.48;1.85;;;21.90;98.00;;;;;;5089624;28;20380;-79
2022/01/22 10:04:04;;;;;;;6.38;1.88;;;21.90;98.60;;;;;;5090472;28;20392;-79
2022/01/22 10:06:34;;;;;;;8.30;2.10;;;22.00;99.30;;;;;;5090486;28;20418;-79
2022/01/22 10:09:13;;;;;;;8.50;2.10;;;22.00;99.30;;;;;;5090567;28;20447;-81
2022/01/22 10:11:41;;;;;;;7.57;1.77;;;21.90;99.20;;;;;;5090459;28;20442;-79
2022/01/22 10:14:09;;;;;;;9.23;1.88;;;21.90;99.50;;;;;;5089071;28;20377;-78
2022/01/22 10:16:39;;;;;;;5.78;1.52;;;21.90;99.80;;;;;;5090949;28;20378;-79
2022/01/22 10:19:14;;;;;;;8.23;1.70;;;22.00;99.90;;;;;;5088899;28;20871;-78
2022/01/22 10:21:44;;;;;;;6.75;1.65;;;21.90;99.80;;;;;;5090237;28;20388;-77
2022/01/22 10:29:54;;;;;;;7.45;1.90;;;21.70;99.90;;;;;;5090368;28;20349;-78
2022/01/22 10:32:28;;;;;;;9.60;2.00;;;21.60;99.90;;;;;;5089996;28;20396;-79
2022/01/22 10:35:09;;;;;;;9.88;1.90;;;21.60;99.90;;;;;;5090035;28;20365;-78
2022/01/22 10:37:37;;;;;;;9.30;1.80;;;21.50;99.90;;;;;;5089939;28;20395;-79
2022/01/22 10:40:30;;;;;;;8.82;1.90;;;21.50;99.90;;;;;;5090181;28;20444;-79
2022/01/22 10:43:22;;;;;;;7.90;1.60;;;21.40;99.90;;;;;;5089732;28;20395;-79
2022/01/22 10:46:05;;;;;;;9.35;1.70;;;21.40;99.90;;;;;;5083769;28;20725;-79
2022/01/22 10:48:32;;;;;;;9.57;1.73;;;21.30;99.90;;;;;;5089789;28;20388;-79
2022/01/22 10:51:03;;;;;;;9.68;1.85;;;21.30;99.90;;;;;;5089673;28;20389;-79
2022/01/22 10:53:39;;;;;;;5.38;1.52;;;21.20;99.90;;;;;;5089795;28;20384;-79
2022/01/22 10:56:08;;;;;;;7.60;2.00;;;21.20;99.90;;;;;;5089946;28;20368;-80
2022/01/22 10:58:35;;;;;;;7.88;1.50;;;21.20;99.90;;;;;;5089670;28;20395;-80
2022/01/22 11:01:06;;;;;;;8.35;1.63;;;21.20;99.90;;;;;;5089463;28;20372;-80
2022/01/22 11:03:35;;;;;;;8.40;1.80;;;21.20;99.90;;;;;;5089549;28;20426;-79
2022/01/22 11:06:07;;;;;;;15.10;2.30;;;21.10;99.90;;;;;;5089512;28;20372;-79
2022/01/22 11:08:35;;;;;;;16.77;2.50;;;21.10;99.90;;;;;;5089492;28;20365;-79
2022/01/22 11:11:02;;;;;;;13.73;2.30;;;21.00;99.90;;;;;;5089825;28;20388;-80
2022/01/22 11:13:29;;;;;;;15.68;2.33;;;20.80;99.90;;;;;;5089152;28;20863;-79
2022/01/22 11:15:57;;;;;;;11.43;2.03;;;20.80;99.90;;;;;;5089193;28;20724;-80
2022/01/22 11:18:25;;;;;;;8.82;1.77;;;20.70;99.90;;;;;;5089265;28;20422;-80
2022/01/22 11:20:53;;;;;;;9.53;1.80;;;20.70;99.90;;;;;;5089185;28;20697;-81
2022/01/22 11:23:21;;;;;;;7.70;1.65;;;20.60;99.90;;;;;;5089257;28;20413;-80
2022/01/22 11:25:50;;;;;;;8.65;1.70;;;20.60;99.90;;;;;;5089137;28;20386;-80
2022/01/22 11:28:18;;;;;;;6.35;1.80;;;20.60;99.90;;;;;;5089095;28;20375;-79
2022/01/22 11:30:48;;;;;;;10.63;1.90;;;20.60;99.90;;;;;;5089205;28;20715;-78
2022/01/22 11:33:18;;;;;;;11.60;1.90;;;20.60;99.90;;;;;;5088909;28;20459;-79
2022/01/22 11:36:03;;;;;;;11.98;1.80;;;20.50;99.90;;;;;;5087721;28;20369;-79
2022/01/22 11:38:36;;;;;;;12.25;1.80;;;20.60;99.90;;;;;;5088926;28;20376;-81
2022/01/22 11:41:08;;;;;;;13.88;2.20;;;20.50;99.90;;;;;;5088614;28;20447;-79
2022/01/22 11:46:34;;;;;;;21.33;2.50;;;20.50;99.90;;;;;;5088839;28;20369;-79
2022/01/22 11:49:38;;;;;;;18.40;2.90;;;20.60;99.90;;;;;;5087470;28;20372;-80
2022/01/22 11:52:14;;;;;;;11.43;2.10;;;20.40;99.90;;;;;;5088641;28;20482;-79
2022/01/22 11:55:02;;;;;;;9.23;1.92;;;20.30;99.90;;;;;;5088735;28;20376;-80
2022/01/22 11:57:31;;;;;;;11.32;1.92;;;20.10;99.90;;;;;;5088579;28;20384;-81
2022/01/22 12:00:20;;;;;;;9.10;1.73;;;20.10;99.90;;;;;;5088709;28;20376;-81
2022/01/22 12:03:09;;;;;;;8.13;1.80;;;20.00;99.90;;;;;;5088510;28;20385;-81
2022/01/22 12:05:58;;;;;;;10.40;2.60;;;20.00;99.90;;;;;;5088981;28;20369;-81
2022/01/22 12:08:26;;;;;;;18.17;3.00;;;20.10;99.90;;;;;;5088828;28;20373;-82
2022/01/22 12:16:40;;;;;;;11.25;2.13;;;20.20;99.90;;;;;;5089110;28;20852;-80
2022/01/22 12:22:48;;;;;;;15.95;2.22;;;20.10;99.90;;;;;;5088707;28;20367;-81
2022/01/22 12:25:15;;;;;;;9.77;2.00;;;20.20;99.90;;;;;;5092672;28;20371;-79
2022/01/22 12:27:49;;;;;;;7.55;2.05;;;20.20;99.90;;;;;;5092721;28;20851;-80
2022/01/22 12:30:32;;;;;;;8.35;1.90;;;20.20;99.90;;;;;;5092533;28;20503;-82
2022/01/22 12:33:00;;;;;;;9.05;2.00;;;20.20;99.90;;;;;;5092412;28;20478;-80
2022/01/22 12:35:34;;;;;;;7.75;1.85;;;20.20;99.90;;;;;;5092345;28;20376;-80
2022/01/22 12:38:24;;;;;;;7.63;1.80;;;20.20;99.90;;;;;;5092256;28;20376;-81
2022/01/22 12:40:59;;;;;;;11.52;2.10;;;20.20;99.90;;;;;;5092201;28;20359;-81
2022/01/22 12:43:31;;;;;;;11.43;2.30;;;20.20;99.90;;;;;;5092336;28;20440;-78
2022/01/22 12:46:01;;;;;;;11.10;2.35;;;20.30;99.90;;;;;;5091578;28;20384;-79
2022/01/22 12:48:32;;;;;;;8.73;1.70;;;20.30;99.90;;;;;;5092194;28;20456;-79
2022/01/22 12:51:04;;;;;;;6.55;2.00;;;20.20;99.90;;;;;;5092156;28;20384;-81
2022/01/22 12:53:32;;;;;;;8.90;2.20;;;20.20;99.90;;;;;;5090834;28;20748;-80
2022/01/22 12:58:30;;;;;;;10.30;2.28;;;20.10;99.90;;;;;;5092336;28;20388;-78
2022/01/22 13:01:31;;;;;;;8.75;2.20;;;20.10;99.90;;;;;;5091962;28;20377;-81
2022/01/22 13:04:01;;;;;;;13.60;2.30;;;20.10;99.90;;;;;;5090684;28;20451;-81
2022/01/22 13:06:45;;;;;;;10.38;2.10;;;20.10;99.90;;;;;;5091815;28;20452;-81
2022/01/22 13:09:13;;;;;;;11.00;2.22;;;20.00;99.90;;;;;;5092302;28;20361;-81
2022/01/22 13:11:48;;;;;;;13.30;2.25;;;20.10;99.90;;;;;;5091797;28;20509;-81
2022/01/22 13:14:26;;;;;;;10.52;2.10;;;20.10;99.90;;;;;;5092084;28;20867;-81
2022/01/22 13:16:59;;;;;;;11.25;2.30;;;20.10;99.90;;;;;;5091784;28;20373;-82
2022/01/22 13:19:30;;;;;;;10.57;2.22;;;20.00;99.90;;;;;;5092131;28;20448;-81
2022/01/22 13:22:03;;;;;;;9.32;2.10;;;20.00;99.90;;;;;;5091728;28;20482;-82
2022/01/22 13:24:31;;;;;;;9.02;2.03;;;20.00;99.90;;;;;;5091457;28;20360;-81
2022/01/22 13:27:06;;;;;;;11.38;2.08;;;20.00;99.90;;;;;;5091432;28;20380;-78
2022/01/22 13:29:39;;;;;;;10.48;2.30;;;19.90;99.90;;;;;;5091882;28;20688;-81
2022/01/22 13:35:26;;;;;;;6.70;2.15;;;19.80;99.90;;;;;;5091261;28;20451;-81
2022/01/22 13:49:10;;;;;;;9.75;2.67;;;19.80;99.90;;;;;;5091743;28;20685;-81
2022/01/22 13:51:39;;;;;;;8.40;2.60;;;19.70;99.90;;;;;;5091073;28;20567;-80
2022/01/22 13:54:07;;;;;;;7.70;2.90;;;19.60;99.90;;;;;;5091098;28;20376;-81
2022/01/22 13:56:46;;;;;;;9.63;2.33;;;19.50;99.90;;;;;;5090961;28;20360;-78
2022/01/22 13:59:18;;;;;;;11.63;2.80;;;19.40;99.90;;;;;;5090933;28;20379;-80
2022/01/22 14:04:21;;;;;;;6.85;2.42;;;19.10;99.90;;;;;;5090946;28;20360;-81
2022/01/22 14:06:48;;;;;;;9.93;2.50;;;19.20;99.90;;;;;;5090651;28;20376;-81
2022/01/22 14:09:20;;;;;;;11.38;2.50;;;19.00;99.90;;;;;;5090637;28;20375;-78
2022/01/22 14:12:07;;;;;;;9.13;2.70;;;19.00;99.90;;;;;;5090602;28;20401;-80
2022/01/22 14:14:58;;;;;;;10.75;2.50;;;18.90;99.90;;;;;;5090883;28;20388;-81
2022/01/22 14:17:30;;;;;;;7.50;2.75;;;18.90;99.90;;;;;;5090549;28;20368;-79
2022/01/22 14:20:15;;;;;;;10.75;2.70;;;18.90;99.90;;;;;;5090576;28;20365;-80
2022/01/22 14:23:12;;;;;;;12.43;2.70;;;18.90;99.90;;;;;;5090421;28;20361;-78
2022/01/22 14:25:59;;;;;;;9.43;2.20;;;18.80;99.90;;;;;;5075412;28;20752;-77
2022/01/22 14:28:57;;;;;;;12.57;2.45;;;18.70;99.90;;;;;;5083078;28;20783;-78
2022/01/22 14:31:29;;;;;;;11.60;2.80;;;18.60;99.90;;;;;;5089622;28;20447;-79
2022/01/22 14:33:57;;;;;;;9.88;2.70;;;18.60;99.90;;;;;;5090327;28;20368;-78
2022/01/22 14:36:27;;;;;;;10.60;2.88;;;18.60;99.90;;;;;;5090034;28;20778;-79
2022/01/22 14:44:51;;;;;;;11.30;2.53;;;18.60;99.90;;;;;;5090352;28;20418;-79
2022/01/22 14:47:20;;;;;;;7.85;2.53;;;18.60;99.90;;;;;;5087934;28;20468;-79
2022/01/22 14:49:53;;;;;;;9.67;2.60;;;18.70;99.90;;;;;;5089792;28;20377;-78
2022/01/22 14:52:22;;;;;;;12.27;2.42;;;18.70;99.90;;;;;;5089678;28;20404;-80
2022/01/22 14:54:50;;;;;;;9.50;2.45;;;18.70;99.90;;;;;;5089709;28;20445;-79
2022/01/22 14:57:24;;;;;;;13.33;3.13;;;18.70;99.90;;;;;;5089701;28;20449;-79
2022/01/22 14:59:52;;;;;;;13.00;2.92;;;18.70;99.90;;;;;;5089739;28;20372;-78
2022/01/22 15:02:19;;;;;;;11.27;2.70;;;18.70;99.90;;;;;;5089850;28;20373;-79
2022/01/22 15:04:46;;;;;;;9.85;2.83;;;18.70;99.90;;;;;;5089581;28;20377;-78
2022/01/22 15:07:15;;;;;;;13.30;3.10;;;18.60;99.90;;;;;;5089305;28;20376;-79
2022/01/22 15:09:44;;;;;;;10.70;2.75;;;18.70;99.90;;;;;;5089309;28;20419;-78
2022/01/22 15:12:12;;;;;;;10.63;2.90;;;18.70;99.90;;;;;;5089203;28;20404;-78
2022/01/22 15:14:40;;;;;;;11.27;2.92;;;18.70;99.90;;;;;;5089400;28;20364;-79